createdAt,value
2023-03-04T00:00:03.073Z,1021.75
2023-03-04T00:05:02.790Z,1021.8
2023-03-04T00:10:02.755Z,1021.72
2023-03-04T00:15:03.491Z,1021.63
2023-03-04T00:20:03.374Z,1021.6
2023-03-04T00:25:03.192Z,1021.47
2023-03-04T00:30:02.890Z,1021.36
2023-03-04T00:35:03.550Z,1021.41
2023-03-04T00:40:03.175Z,1021.37
2023-03-04T00:45:03.118Z,1021.3
2023-03-04T00:50:02.703Z,1021.28
2023-03-04T00:55:03.993Z,1021.12
2023-03-04T01:00:03.580Z,1021.02
2023-03-04T01:05:03.214Z,1021
2023-03-04T01:10:02.950Z,1021.04
2023-03-04T01:15:03.899Z,1020.9
2023-03-04T01:20:03.471Z,1020.87
2023-03-04T01:25:03.550Z,1020.88
2023-03-04T01:30:03.421Z,1020.75
2023-03-04T01:35:03.154Z,1020.74
2023-03-04T01:40:03.030Z,1020.66
2023-03-04T01:45:02.860Z,1020.55
2023-03-04T01:50:03.841Z,1020.54
2023-03-04T01:55:03.470Z,1020.48
2023-03-04T02:00:03.181Z,1020.25
2023-03-04T02:05:02.844Z,1020.26
2023-03-04T02:10:02.747Z,1020.21
2023-03-04T02:15:02.949Z,1020.22
2023-03-04T02:20:03.010Z,1020.31
2023-03-04T02:25:02.851Z,1020.27
2023-03-04T02:30:03.535Z,1020.19
2023-03-04T02:35:02.649Z,1020.32
2023-03-04T02:40:03.649Z,1020.29
2023-03-04T02:45:03.136Z,1020.27
2023-03-04T02:50:02.787Z,1020.21
2023-03-04T02:55:04.030Z,1020.2
2023-03-04T03:00:03.324Z,1020.22
2023-03-04T03:05:03.044Z,1020.14
2023-03-04T03:10:02.989Z,1020.07
2023-03-04T03:15:02.827Z,1020.13
2023-03-04T03:20:03.823Z,1020.11
2023-03-04T03:25:03.457Z,1020.12
2023-03-04T03:30:03.421Z,1020.01
2023-03-04T03:35:03.159Z,1019.96
2023-03-04T03:40:02.888Z,1019.9
2023-03-04T03:45:02.890Z,1019.82
2023-03-04T03:50:02.637Z,1019.9
2023-03-04T03:55:03.470Z,1019.81
2023-03-04T04:00:03.600Z,1019.7
2023-03-04T04:05:03.475Z,1019.69
2023-03-04T04:10:03.448Z,1019.64
2023-03-04T04:15:03.207Z,1019.62
2023-03-04T04:20:02.910Z,1019.58
2023-03-04T04:25:03.062Z,1019.54
2023-03-04T04:30:02.763Z,1019.6
2023-03-04T04:35:03.404Z,1019.6
2023-03-04T04:40:03.031Z,1019.58
2023-03-04T04:45:02.969Z,1019.48
2023-03-04T04:50:02.780Z,1019.42
2023-03-04T04:55:03.931Z,1019.39
2023-03-04T05:00:03.412Z,1019.31
2023-03-04T05:05:03.253Z,1019.29
2023-03-04T05:10:03.160Z,1019.31
2023-03-04T05:15:02.912Z,1019.3
2023-03-04T05:20:02.767Z,1019.19
2023-03-04T05:25:03.495Z,1019.22
2023-03-04T05:30:03.187Z,1019.13
2023-03-04T05:35:03.057Z,1019.17
2023-03-04T05:40:02.766Z,1019.09
2023-03-04T05:45:03.492Z,1019.08
2023-03-04T05:50:03.429Z,1019.09
2023-03-04T05:55:03.443Z,1019.18
2023-03-04T06:00:03.065Z,1019.21
2023-03-04T06:05:03.015Z,1019.17
2023-03-04T06:10:02.747Z,1019.2
2023-03-04T06:15:03.503Z,1019.08
2023-03-04T06:20:03.276Z,1019.04
2023-03-04T06:25:03.013Z,1019.03
2023-03-04T06:30:02.950Z,1019.12
2023-03-04T06:35:02.670Z,1019.07
2023-03-04T06:40:03.513Z,1019.03
2023-03-04T06:45:03.577Z,1019.15
2023-03-04T06:50:03.569Z,1019.17
2023-03-04T06:55:03.781Z,1019.14
2023-03-04T07:00:03.028Z,1019.17
2023-03-04T07:05:02.935Z,1019.07
2023-03-04T07:10:02.746Z,1019.06
2023-03-04T07:15:03.659Z,1019.09
2023-03-04T07:20:03.548Z,1019.13
2023-03-04T07:25:03.473Z,1019.1
2023-03-04T07:30:03.593Z,1019.14
2023-03-04T07:35:02.968Z,1019.1
2023-03-04T07:40:03.643Z,1019.12
2023-03-04T07:45:03.443Z,1019.1
2023-03-04T07:50:03.292Z,1019.17
2023-03-04T07:55:03.195Z,1019.17
2023-03-04T08:00:02.780Z,1019.2
2023-03-04T08:05:03.499Z,1019.14
2023-03-04T08:10:03.638Z,1019.1
2023-03-04T08:15:03.318Z,1019.11
2023-03-04T08:20:02.983Z,1019.13
2023-03-04T08:25:02.772Z,1019
2023-03-04T08:30:02.872Z,1019.02
2023-03-04T08:35:03.604Z,1018.92
2023-03-04T08:40:03.364Z,1019.01
2023-03-04T08:45:03.256Z,1018.94
2023-03-04T08:50:02.781Z,1018.98
2023-03-04T08:55:03.956Z,1018.95
2023-03-04T09:00:02.723Z,1018.87
2023-03-04T09:05:03.459Z,1018.86
2023-03-04T09:10:03.432Z,1018.77
2023-03-04T09:15:12.519Z,1018.87
2023-03-04T09:20:05.097Z,1018.83
2023-03-04T09:25:02.980Z,1018.69
2023-03-04T09:30:02.864Z,1018.6
2023-03-04T09:35:03.580Z,1018.75
2023-03-04T09:40:03.372Z,1018.7
2023-03-04T09:45:03.220Z,1018.72
2023-03-04T09:50:03.113Z,1018.7
2023-03-04T09:55:05.222Z,1018.63
2023-03-04T10:00:02.727Z,1018.62
2023-03-04T10:05:04.019Z,1018.61
2023-03-04T10:10:03.279Z,1018.48
2023-03-04T10:15:03.039Z,1018.52
2023-03-04T10:20:02.913Z,1018.51
2023-03-04T10:25:02.659Z,1018.61
2023-03-04T10:30:03.316Z,1018.37
2023-03-04T10:35:03.324Z,1018.45
2023-03-04T10:40:02.877Z,1018.52
2023-03-04T10:45:02.934Z,1018.53
2023-03-04T10:50:03.524Z,1018.48
2023-03-04T10:55:03.489Z,1018.5
2023-03-04T11:00:03.519Z,1018.43
2023-03-04T11:05:03.043Z,1018.49
2023-03-04T11:10:03.080Z,1018.45
2023-03-04T11:15:02.919Z,1018.46
2023-03-04T11:20:02.796Z,1018.4
2023-03-04T11:25:03.585Z,1018.33
2023-03-04T11:30:03.280Z,1018.29
2023-03-04T11:35:02.868Z,1018.33
2023-03-04T11:40:02.737Z,1018.39
2023-03-04T11:45:03.503Z,1018.28
2023-03-04T11:50:03.319Z,1018.29
2023-03-04T11:55:03.700Z,1018.37
2023-03-04T12:00:03.091Z,1018.41
2023-03-04T12:05:02.930Z,1018.17
2023-03-04T12:10:03.615Z,1018.26
2023-03-04T12:15:03.438Z,1018.24
2023-03-04T12:20:03.185Z,1018.15
2023-03-04T12:25:02.938Z,1017.98
2023-03-04T12:30:03.574Z,1018.02
2023-03-04T12:35:03.494Z,1018.02
2023-03-04T12:40:03.323Z,1017.96
2023-03-04T12:45:03.168Z,1017.98
2023-03-04T12:50:02.771Z,1017.97
2023-03-04T12:55:03.932Z,1017.93
2023-03-04T13:00:03.454Z,1017.94
2023-03-04T13:05:02.580Z,1017.92
2023-03-04T13:10:02.918Z,1017.93
2023-03-04T13:15:03.506Z,1018.02
2023-03-04T13:20:03.584Z,1017.97
2023-03-04T13:25:03.011Z,1018
2023-03-04T13:30:02.755Z,1018.04
2023-03-04T13:35:03.465Z,1018.01
2023-03-04T13:40:03.208Z,1018.09
2023-03-04T13:45:03.050Z,1018.03
2023-03-04T13:50:02.843Z,1018.01
2023-03-04T13:55:02.731Z,1018.04
2023-03-04T14:00:03.637Z,1017.92
2023-03-04T14:05:04.217Z,1017.9
2023-03-04T14:10:03.312Z,1017.99
2023-03-04T14:15:02.821Z,1017.9
2023-03-04T14:20:03.209Z,1017.94
2023-03-04T14:25:02.889Z,1017.82
2023-03-04T14:30:02.664Z,1017.95
2023-03-04T14:35:03.575Z,1017.93
2023-03-04T14:40:03.445Z,1017.82
2023-03-04T14:45:03.312Z,1017.78
2023-03-04T14:50:02.943Z,1017.81
2023-03-04T14:55:03.804Z,1017.82
2023-03-04T15:00:03.308Z,1017.79
2023-03-04T15:05:03.141Z,1017.74
2023-03-04T15:10:02.899Z,1017.71
2023-03-04T15:15:02.890Z,1017.79
2023-03-04T15:20:02.810Z,1017.76
2023-03-04T15:25:03.609Z,1017.8
2023-03-04T15:30:03.344Z,1017.79
2023-03-04T15:35:03.260Z,1017.68
2023-03-04T15:40:02.996Z,1017.7
2023-03-04T15:45:02.829Z,1017.73
2023-03-04T15:50:03.541Z,1017.75
2023-03-04T15:55:03.456Z,1017.75
2023-03-04T16:00:03.160Z,1017.78
2023-03-04T16:05:02.976Z,1017.84
2023-03-04T16:10:02.789Z,1017.84
2023-03-04T16:15:06.954Z,1017.93
2023-03-04T16:20:02.825Z,1017.82
2023-03-04T16:25:03.467Z,1017.76
2023-03-04T16:30:03.489Z,1017.73
2023-03-04T16:35:03.041Z,1017.71
2023-03-04T16:40:02.774Z,1017.73
2023-03-04T16:45:02.715Z,1017.75
2023-03-04T16:50:04.194Z,1017.71
2023-03-04T16:55:02.902Z,1017.84
2023-03-04T17:00:03.672Z,1017.84
2023-03-04T17:05:03.189Z,1017.92
2023-03-04T17:10:03.356Z,1017.89
2023-03-04T17:15:02.842Z,1017.96
2023-03-04T17:20:03.508Z,1018.02
2023-03-04T17:25:03.606Z,1018.03
2023-03-04T17:30:03.321Z,1018.07
2023-03-04T17:35:02.879Z,1018.13
2023-03-04T17:40:03.011Z,1018.07
2023-03-04T17:45:03.695Z,1018.09
2023-03-04T17:50:03.326Z,1018.08
2023-03-04T17:55:03.108Z,1018.07
2023-03-04T18:00:03.195Z,1018.06
2023-03-04T18:05:03.511Z,1018.07
2023-03-04T18:10:02.769Z,1018.13
2023-03-04T18:15:03.440Z,1018.02
2023-03-04T18:20:03.333Z,1018.07
2023-03-04T18:25:03.392Z,1018.05
2023-03-04T18:30:03.223Z,1017.94
2023-03-04T18:35:03.624Z,1017.97
2023-03-04T18:40:03.440Z,1017.92
2023-03-04T18:45:03.478Z,1017.91
2023-03-04T18:50:03.207Z,1017.85
2023-03-04T18:55:03.834Z,1017.91
2023-03-04T19:00:03.385Z,1017.91
2023-03-04T19:05:02.973Z,1017.94
2023-03-04T19:10:03.652Z,1017.93
2023-03-04T19:15:03.635Z,1017.94
2023-03-04T19:20:03.141Z,1017.99
2023-03-04T19:25:03.107Z,1017.91
2023-03-04T19:30:03.640Z,1018
2023-03-04T19:35:04.284Z,1018.03
2023-03-04T19:40:02.670Z,1017.99
2023-03-04T19:45:03.351Z,1018.03
2023-03-04T19:50:03.071Z,1018.01
2023-03-04T19:55:03.627Z,1018.09
2023-03-04T20:00:03.374Z,1018.13
2023-03-04T20:05:03.399Z,1018.02
2023-03-04T20:10:03.202Z,1017.95
2023-03-04T20:15:03.212Z,1018.1
2023-03-04T20:20:03.175Z,1018.1
2023-03-04T20:25:02.882Z,1018.06
2023-03-04T20:30:04.635Z,1018.06
2023-03-04T20:35:03.490Z,1018.02
2023-03-04T20:40:03.201Z,1018.08
2023-03-04T20:45:03.135Z,1018.02
2023-03-04T20:50:02.852Z,1018.11
2023-03-04T20:55:03.696Z,1018.08
2023-03-04T21:00:03.050Z,1018.02
2023-03-04T21:05:02.837Z,1017.97
2023-03-04T21:10:03.673Z,1018.09
2023-03-04T21:15:03.618Z,1018.02
2023-03-04T21:20:03.384Z,1017.99
2023-03-04T21:25:03.269Z,1017.99
2023-03-04T21:30:03.064Z,1017.93
2023-03-04T21:35:02.900Z,1017.87
2023-03-04T21:40:02.821Z,1017.95
2023-03-04T21:45:03.748Z,1017.96
2023-03-04T21:50:03.466Z,1017.98
2023-03-04T21:55:03.573Z,1017.92
2023-03-04T22:00:06.992Z,1017.79
2023-03-04T22:05:02.752Z,1017.87
2023-03-04T22:10:02.997Z,1017.9
2023-03-04T22:15:03.515Z,1017.82
2023-03-04T22:20:03.370Z,1017.81
2023-03-04T22:25:03.015Z,1017.7
2023-03-04T22:30:02.791Z,1017.78
2023-03-04T22:35:03.709Z,1017.74
2023-03-04T22:40:03.398Z,1017.75
2023-03-04T22:45:03.208Z,1017.72
2023-03-04T22:50:02.385Z,1017.58
2023-03-04T22:55:02.971Z,1017.62
2023-03-04T23:00:03.747Z,1017.65
2023-03-04T23:05:02.783Z,1017.6
2023-03-04T23:10:03.680Z,1017.59
2023-03-04T23:15:03.501Z,1017.63
2023-03-04T23:20:03.500Z,1017.47
2023-03-04T23:25:03.221Z,1017.55
2023-03-04T23:30:02.985Z,1017.47
2023-03-04T23:35:03.649Z,1017.46
2023-03-04T23:40:02.810Z,1017.43
2023-03-04T23:45:03.641Z,1017.38
2023-03-04T23:50:03.364Z,1017.36
2023-03-04T23:55:03.544Z,1017.26
